Thursday, November 27, 2014, 9:09 AM EST

KSEG, Selinsgrove Penn Valley Airport

Location: Selinsgrove, PA, United States Lat: 40.817
Local Time: 9:09 AM EST (14:09 GMT) Lon: -76.867
Time Zone: US/Eastern Elev: 449 ft

Show me the last for .
Show Decoded

2014-11-27 08:53 METAR KSEG 271353Z AUTO 00000KT 10SM OVC043 00/M02 A3005 RMK AO2 SLP179
                 T00001017 =
2014-11-27 07:53 METAR KSEG 271253Z AUTO 01003KT 10SM OVC044 M01/M02 A3003 RMK AO2 SLP172
                 T10061017 =
2014-11-27 06:53 METAR KSEG 271153Z AUTO 00000KT 10SM OVC044 M01/M02 A3001 RMK AO2 SLP168 60000
                 70064 T10061017 10006 21006 53003 =
2014-11-27 05:53 METAR KSEG 271053Z AUTO 00000KT 10SM OVC050 M01/M02 A3000 RMK AO2 SLP165
                 T10061017 =
2014-11-27 04:53 METAR KSEG 270953Z AUTO 35003KT 9SM FEW042 BKN049 OVC075 M01/M02 A2999 RMK AO2
                 SLP160 T10061017 =
2014-11-27 03:53 METAR KSEG 270853Z AUTO 00000KT 10SM FEW031 OVC046 01/M02 A3000 RMK AO2 SLP165
                 60000 T00061022 53007 =
2014-11-27 03:45 METAR KSEG 270845Z AUTO 00000KT 10SM SCT031 OVC045 00/M02 A3000 RMK AO2
                 T00001022 =
2014-11-27 02:53 METAR KSEG 270753Z AUTO 00000KT 9SM OVC027 M01/M01 A3000 RMK AO2 SLP162
                 T10061011 =
2014-11-27 02:34 METAR KSEG 270734Z AUTO 00000KT 8SM BKN025 OVC045 00/M01 A3000 RMK AO2 T00001011
                 =
2014-11-27 01:53 METAR KSEG 270653Z AUTO 00000KT 10SM SCT047 OVC060 01/M01 A2999 RMK AO2 SNE01
                 SLP158 P0000 T00061011 =
2014-11-27 00:53 METAR KSEG 270553Z AUTO 00000KT 5SM -SN BR OVC055 00/M01 A2998 RMK AO2 SNB0458
                 SLP157 P0000 60001 T00001011 10006 20000 51008 =
2014-11-26 23:53 METAR KSEG 270453Z AUTO 00000KT 10SM FEW028 OVC065 01/M01 A2998 RMK AO2 SLP156
                 T00061011 400390000 =
2014-11-26 22:53 METAR KSEG 270353Z AUTO 31004KT 10SM FEW026 SCT070 OVC120 00/M02 A2997 RMK AO2
                 SLP154 T00001017 =
2014-11-26 21:53 METAR KSEG 270253Z AUTO 32005KT 10SM FEW045 BKN120 00/M02 A2996 RMK AO2 SLP149
                 60001 T00001017 55008 =
2014-11-26 20:53 METAR KSEG 270153Z AUTO 01006KT 10SM BKN060 OVC120 00/M02 A2995 RMK AO2 SNE38
                 SLP145 P0000 T00001017 =
2014-11-26 19:53 METAR KSEG 270053Z AUTO 34005KT 6SM -SN BR FEW039 BKN060 OVC075 01/M01 A2998 RMK
                 AO2 SLP155 P0001 T00061006 =
2014-11-26 18:53 METAR KSEG 262353Z AUTO 34004KT 4SM -SN BR FEW010 OVC038 01/M01 A2998 RMK AO2
                 SLP156 P0000 60017 T00061006 10011 20006 50002 =
2014-11-26 18:18 METAR KSEG 262318Z AUTO 35004KT 3SM -SN BR FEW006 SCT011 OVC033 01/M01 A2999 RMK
                 AO2 P0000 T00061006 =
2014-11-26 17:53 METAR KSEG 262253Z AUTO 34004KT 2SM -SN BR FEW005 OVC016 01/M01 A3000 RMK AO2
                 SLP161 P0003 T00061006 =
2014-11-26 17:33 METAR KSEG 262233Z AUTO 34006KT 2SM -SN BR FEW006 OVC016 01/M01 A2999 RMK AO2
                 P0002 T00061006 =
2014-11-26 17:24 METAR KSEG 262224Z AUTO 34006KT 2SM -SN BR SCT008 OVC014 01/M01 A2999 RMK AO2
                 P0002 T00061006 =
2014-11-26 17:14 METAR KSEG 262214Z AUTO 34006KT 2SM -SN BR BKN008 OVC014 01/M01 A2999 RMK AO2
                 P0001 T00061006 =
2014-11-26 16:53 METAR KSEG 262153Z AUTO 34005KT 1 1/2SM -SN BR FEW006 OVC012 01/M01 A2998 RMK
                 AO2 SLP157 P0004 T00061006 =
2014-11-26 16:43 METAR KSEG 262143Z AUTO 33006KT 1 1/4SM -SN BR SCT009 OVC012 01/M01 A2998 RMK
                 AO2 P0004 T00061006 =
2014-11-26 16:07 METAR KSEG 262107Z AUTO 33006KT 3/4SM -SN BR SCT008 OVC013 01/M01 A2998 RMK AO2
                 P0001 T00061006 =
2014-11-26 15:53 METAR KSEG 262053Z AUTO 34006KT 3/4SM -SN BR SCT008 OVC015 01/M01 A2998 RMK AO2
                 SLP154 P0004 60010 T00061006 55020 =
2014-11-26 15:42 METAR KSEG 262042Z AUTO 34006KT 1SM -SN BR SCT006 OVC015 01/M01 A2998 RMK AO2
                 P0003 T00061006 =
2014-11-26 15:34 METAR KSEG 262034Z AUTO 35006KT 1SM -SN BR BKN008 OVC015 01/M01 A2998 RMK AO2
                 P0002 T00061006 =
2014-11-26 15:25 METAR KSEG 262025Z AUTO 34007KT 1 1/4SM -SN BR SCT006 SCT011 OVC015 01/M01 A2998
                 RMK AO2 P0002 T00061006 =
2014-11-26 15:06 METAR KSEG 262006Z AUTO 34009KT 1SM -SN BR SCT007 OVC017 01/M01 A2998 RMK AO2
                 P0001 T00061006 =
2014-11-26 14:53 METAR KSEG 261953Z AUTO 35009KT 1 1/4SM -SN BR SCT007 OVC020 01/M01 A2996 RMK
                 AO2 PRESFR SLP151 P0002 T00061006 =
2014-11-26 14:23 METAR KSEG 261923Z AUTO 34011KT 1 1/2SM -SN BR SCT006 BKN018 OVC025 01/M01 A2997
                 RMK AO2 P0001 T00111006 =
2014-11-26 14:13 METAR KSEG 261913Z AUTO 34009KT 1 1/4SM -SN BR BKN006 OVC014 01/M01 A2998 RMK
                 AO2 P0001 T00111006 =
2014-11-26 14:04 METAR KSEG 261904Z AUTO 35008KT 1SM -SN BR BKN006 OVC013 01/M01 A2998 RMK AO2
                 P0001 T00111006 =
2014-11-26 13:53 METAR KSEG 261853Z AUTO 36010KT 3/4SM -SN BR BKN006 OVC015 01/M01 A2998 RMK AO2
                 PRESFR SLP154 P0004 T00111006 =
2014-11-26 13:46 METAR KSEG 261846Z AUTO 36010KT 1SM -SN BR BKN006 OVC015 01/M01 A2999 RMK AO2
                 PRESFR P0004 T00111006 =
2014-11-26 13:38 METAR KSEG 261838Z AUTO 35007KT 1 1/4SM -SN BR BKN005 OVC015 01/M01 A3000 RMK
                 AO2 P0003 T00111006 =
2014-11-26 13:28 METAR KSEG 261828Z AUTO 35008KT 1 1/4SM -SN BR BKN006 OVC013 01/M01 A3001 RMK
                 AO2 P0003 T00061006 =
2014-11-26 13:06 METAR KSEG 261806Z AUTO 36007KT 3/4SM -SN BR BKN006 OVC012 01/00 A3003 RMK AO2
                 P0001 T00060000 =
2014-11-26 12:53 METAR KSEG 261753Z AUTO 36005KT 1SM -SN BR BKN005 OVC011 01/M01 A3004 RMK AO2
                 SLP175 P0007 60046 T00061006 10039 20006 58024 =
2014-11-26 12:08 METAR KSEG 261708Z AUTO 35005KT 3/4SM -SN BR BKN005 OVC010 01/00 A3007 RMK AO2
                 P0002 T00060000 =
2014-11-26 11:53 METAR KSEG 261653Z AUTO 34006KT 3/4SM -SN BR BKN006 OVC009 01/00 A3008 RMK AO2
                 SLP190 P0010 T00060000 =
2014-11-26 11:43 METAR KSEG 261643Z AUTO 35006KT 3/4SM -SN BR OVC006 01/00 A3008 RMK AO2 PRESFR
                 P0009 T00060000 =
2014-11-26 11:25 METAR KSEG 261625Z AUTO 33004KT 1/2SM SN FG OVC004 01/00 A3011 RMK AO2 P0006
                 T00060000 =
2014-11-26 10:53 METAR KSEG 261553Z AUTO 34005KT 1/2SM SN FG VV009 01/00 A3012 RMK AO2 SLP206
                 P0010 T00060000 =
2014-11-26 10:17 METAR KSEG 261517Z AUTO 33005KT 3/4SM -SN BR OVC006 01/00 A3015 RMK AO2 P0003
                 T00060000 =
2014-11-26 10:12 METAR KSEG 261512Z AUTO 33005KT 1SM -SN BR OVC005 01/00 A3014 RMK AO2 P0002
                 T00060000 =
2014-11-26 09:53 METAR KSEG 261453Z AUTO 33004KT 1/2SM SN FG OVC005 01/M01 A3011 RMK AO2 SLP200
                 P0009 60019 T00061006 58008 =
2014-11-26 09:27 METAR KSEG 261427Z AUTO 00000KT 1/2SM SN FG OVC004 01/00 A3012 RMK AO2 P0006
                 T00060000 =
2014-11-26 09:18 METAR KSEG 261418Z AUTO 00000KT 3/4SM -SN BR OVC006 01/00 A3011 RMK AO2 P0004
                 T00060000 =

Support USWX by starting your Amazon purchase here.